createdAt,value
2018-07-03T00:00:19.573Z,99.90
2018-07-03T00:02:48.141Z,99.90
2018-07-03T00:05:16.645Z,99.90
2018-07-03T00:07:45.328Z,99.90
2018-07-03T00:10:13.892Z,99.90
2018-07-03T00:12:42.300Z,99.90
2018-07-03T00:15:10.685Z,99.90
2018-07-03T00:17:39.200Z,99.90
2018-07-03T00:20:08.545Z,99.90
2018-07-03T00:22:36.972Z,99.90
2018-07-03T00:25:05.400Z,99.90
2018-07-03T00:27:33.777Z,99.90
2018-07-03T00:30:02.182Z,99.90
2018-07-03T00:32:30.626Z,99.90
2018-07-03T00:34:59.273Z,99.90
2018-07-03T00:37:27.697Z,99.90
2018-07-03T00:39:56.117Z,99.90
2018-07-03T00:42:24.543Z,99.90
2018-07-03T00:44:52.955Z,99.90
2018-07-03T00:47:21.380Z,99.90
2018-07-03T00:54:46.185Z,99.90
2018-07-03T00:57:15.531Z,99.90
2018-07-03T01:00:47.349Z,99.90
2018-07-03T01:03:15.789Z,99.90
2018-07-03T01:05:44.288Z,99.90
2018-07-03T01:08:12.821Z,99.90
2018-07-03T01:10:41.178Z,99.90
2018-07-03T01:13:09.553Z,99.90
2018-07-03T01:15:37.992Z,99.90
2018-07-03T01:18:06.865Z,99.90
2018-07-03T01:20:35.637Z,99.90
2018-07-03T01:23:03.990Z,99.90
2018-07-03T01:25:32.361Z,99.90
2018-07-03T01:28:00.792Z,99.90
2018-07-03T01:30:29.231Z,99.90
2018-07-03T01:32:57.772Z,99.90
2018-07-03T01:35:26.161Z,99.90
2018-07-03T01:37:54.909Z,99.90
2018-07-03T01:40:23.256Z,99.90
2018-07-03T01:42:51.637Z,99.90
2018-07-03T01:45:20.065Z,99.90
2018-07-03T01:47:48.436Z,99.90
2018-07-03T01:50:16.806Z,99.90
2018-07-03T01:52:46.028Z,99.90
2018-07-03T01:55:14.396Z,99.90
2018-07-03T01:57:42.771Z,99.90
2018-07-03T02:00:11.191Z,99.90
2018-07-03T02:02:39.622Z,99.90
2018-07-03T02:05:08.308Z,99.90
2018-07-03T02:07:36.721Z,99.90
2018-07-03T02:10:05.171Z,99.90
2018-07-03T02:12:33.792Z,99.90
2018-07-03T02:15:02.205Z,99.90
2018-07-03T02:17:30.598Z,99.90
2018-07-03T02:19:59.104Z,99.90
2018-07-03T02:22:27.501Z,99.90
2018-07-03T02:24:55.872Z,99.90
2018-07-03T02:27:24.541Z,99.90
2018-07-03T02:29:52.897Z,99.90
2018-07-03T02:32:21.598Z,99.90
2018-07-03T02:34:50.139Z,99.90
2018-07-03T02:37:18.505Z,99.90
2018-07-03T02:39:46.868Z,99.90
2018-07-03T02:42:16.168Z,99.90
2018-07-03T02:44:44.556Z,99.90
2018-07-03T02:47:12.980Z,99.90
2018-07-03T02:49:41.328Z,99.90
2018-07-03T02:52:09.680Z,99.90
2018-07-03T02:54:38.103Z,99.90
2018-07-03T02:57:06.541Z,99.90
2018-07-03T02:59:35.182Z,99.90
2018-07-03T03:02:03.624Z,99.90
2018-07-03T03:04:32.049Z,99.90
2018-07-03T03:07:00.525Z,99.90
2018-07-03T03:09:28.948Z,99.90
2018-07-03T03:11:57.507Z,99.90
2018-07-03T03:14:26.077Z,99.90
2018-07-03T03:16:54.712Z,99.90
2018-07-03T03:19:23.112Z,99.90
2018-07-03T03:21:51.590Z,99.90
2018-07-03T03:24:20.025Z,99.90
2018-07-03T03:26:48.383Z,99.90
2018-07-03T03:29:16.805Z,99.90
2018-07-03T03:31:45.384Z,99.90
2018-07-03T03:34:13.768Z,99.90
2018-07-03T03:36:42.117Z,99.90
2018-07-03T03:39:10.834Z,99.90
2018-07-03T03:41:39.224Z,99.90
2018-07-03T03:44:07.596Z,99.90
2018-07-03T03:46:36.021Z,99.90
2018-07-03T03:49:04.480Z,99.90
2018-07-03T03:51:34.018Z,99.90
2018-07-03T03:54:02.641Z,99.90
2018-07-03T03:56:31.041Z,99.90
2018-07-03T03:58:59.760Z,99.90
2018-07-03T04:03:56.597Z,99.90
2018-07-03T04:06:25.076Z,99.90
2018-07-03T04:08:53.709Z,99.90
2018-07-03T04:11:22.161Z,99.90
2018-07-03T04:13:50.576Z,99.90
2018-07-03T04:16:19.149Z,99.90
2018-07-03T04:18:47.536Z,99.90
2018-07-03T04:21:16.617Z,99.90
2018-07-03T04:23:45.024Z,99.90
2018-07-03T04:26:13.440Z,99.90
2018-07-03T04:28:42.041Z,99.90
2018-07-03T04:31:10.446Z,99.00
2018-07-03T04:33:38.856Z,99.10
2018-07-03T04:36:07.525Z,98.70
2018-07-03T04:38:35.913Z,97.30
2018-07-03T04:41:04.288Z,96.30
2018-07-03T04:43:32.678Z,95.50
2018-07-03T04:46:01.080Z,93.40
2018-07-03T04:48:29.452Z,92.20
2018-07-03T04:50:58.020Z,90.80
2018-07-03T04:53:26.450Z,88.60
2018-07-03T04:55:54.804Z,84.30
2018-07-03T04:58:23.452Z,82.50
2018-07-03T05:00:51.824Z,79.70
2018-07-03T05:03:20.228Z,77.60
2018-07-03T05:05:48.825Z,76.00
2018-07-03T05:08:17.203Z,74.20
2018-07-03T05:10:45.577Z,71.20
2018-07-03T05:13:14.290Z,70.00
2018-07-03T05:15:42.660Z,69.80
2018-07-03T05:18:11.033Z,68.00
2018-07-03T05:20:39.686Z,68.20
2018-07-03T05:23:08.089Z,67.00
2018-07-03T05:25:36.461Z,64.50
2018-07-03T05:28:04.880Z,62.70
2018-07-03T05:30:33.253Z,62.00
2018-07-03T05:33:01.619Z,59.60
2018-07-03T05:35:30.224Z,60.50
2018-07-03T05:37:58.791Z,58.80
2018-07-03T05:40:27.045Z,56.40
2018-07-03T05:42:55.490Z,55.50
2018-07-03T05:45:23.870Z,55.20
2018-07-03T05:47:52.288Z,54.20
2018-07-03T05:50:20.980Z,53.30
2018-07-03T05:52:49.353Z,52.30
2018-07-03T05:55:17.741Z,51.10
2018-07-03T06:00:15.173Z,49.10
2018-07-03T06:02:43.761Z,48.70
2018-07-03T06:05:12.142Z,47.80
2018-07-03T06:07:40.545Z,47.50
2018-07-03T06:10:09.154Z,46.90
2018-07-03T06:12:37.697Z,46.00
2018-07-03T06:15:06.075Z,45.70
2018-07-03T06:17:34.564Z,44.60
2018-07-03T06:20:03.026Z,44.00
2018-07-03T06:22:31.424Z,44.50
2018-07-03T06:25:00.083Z,43.70
2018-07-03T06:27:28.460Z,42.70
2018-07-03T06:29:56.825Z,42.30
2018-07-03T06:32:25.205Z,40.70
2018-07-03T06:34:53.699Z,40.20
2018-07-03T06:37:22.076Z,39.60
2018-07-03T06:39:50.645Z,40.40
2018-07-03T06:42:19.000Z,39.70
2018-07-03T06:44:47.479Z,39.30
2018-07-03T06:47:15.971Z,39.20
2018-07-03T06:49:44.316Z,39.40
2018-07-03T06:52:12.709Z,39.50
2018-07-03T06:54:41.284Z,38.60
2018-07-03T06:57:09.776Z,38.90
2018-07-03T06:59:38.221Z,36.10
2018-07-03T07:02:06.878Z,35.40
2018-07-03T07:04:35.280Z,36.60
2018-07-03T07:07:03.749Z,36.50
2018-07-03T07:09:32.444Z,37.40
2018-07-03T07:12:00.799Z,36.10
2018-07-03T07:14:29.212Z,35.70
2018-07-03T07:16:57.685Z,37.10
2018-07-03T07:19:26.176Z,37.00
2018-07-03T07:21:54.600Z,37.70
2018-07-03T07:24:23.176Z,39.20
2018-07-03T07:26:51.720Z,37.90
2018-07-03T07:29:20.174Z,39.00
2018-07-03T07:31:48.805Z,38.00
2018-07-03T07:34:17.648Z,39.40
2018-07-03T07:36:46.017Z,39.60
2018-07-03T07:39:14.492Z,38.30
2018-07-03T07:41:42.940Z,38.90
2018-07-03T07:46:39.486Z,39.50
2018-07-03T07:49:08.186Z,39.60
2018-07-03T07:51:36.544Z,38.10
2018-07-03T07:54:05.053Z,40.40
2018-07-03T07:56:33.471Z,38.90
2018-07-03T07:59:01.829Z,39.20
2018-07-03T08:01:30.201Z,38.90
2018-07-03T08:03:58.613Z,40.00
2018-07-03T08:06:26.993Z,39.10
2018-07-03T08:08:55.408Z,39.00
2018-07-03T08:11:24.347Z,39.90
2018-07-03T08:13:52.721Z,39.80
2018-07-03T08:16:21.493Z,41.30
2018-07-03T08:18:49.916Z,39.50
2018-07-03T08:21:18.292Z,40.80
2018-07-03T08:23:46.972Z,41.50
2018-07-03T08:26:15.368Z,42.00
2018-07-03T08:28:43.729Z,42.70
2018-07-03T08:31:12.161Z,41.90
2018-07-03T08:33:40.817Z,43.60
2018-07-03T08:36:09.205Z,44.30
2018-07-03T08:38:37.587Z,42.90
2018-07-03T08:41:06.564Z,42.80
2018-07-03T08:43:35.277Z,43.60
2018-07-03T08:46:03.657Z,43.40
2018-07-03T08:48:32.490Z,44.30
2018-07-03T08:51:00.880Z,45.10
2018-07-03T08:53:29.461Z,44.70
2018-07-03T08:55:57.965Z,44.80
2018-07-03T08:58:26.673Z,43.70
2018-07-03T09:00:55.161Z,44.60
2018-07-03T09:03:23.670Z,42.90
2018-07-03T09:05:52.080Z,42.40
2018-07-03T09:08:20.728Z,43.30
2018-07-03T09:10:49.204Z,45.40
2018-07-03T09:13:18.659Z,41.90
2018-07-03T09:15:47.037Z,41.90
2018-07-03T09:18:15.456Z,43.80
2018-07-03T09:20:43.910Z,44.40
2018-07-03T09:23:12.288Z,42.30
2018-07-03T09:25:40.676Z,40.90
2018-07-03T09:28:09.083Z,41.30
2018-07-03T09:30:37.494Z,41.50
2018-07-03T09:33:05.889Z,42.10
2018-07-03T09:35:34.497Z,43.50
2018-07-03T09:38:02.870Z,42.90
2018-07-03T09:40:31.236Z,42.00
2018-07-03T09:42:59.852Z,41.70
2018-07-03T09:45:28.429Z,41.40
2018-07-03T09:47:56.812Z,40.20
2018-07-03T09:50:25.859Z,40.00
2018-07-03T09:52:54.249Z,39.70
2018-07-03T09:55:22.644Z,41.30
2018-07-03T09:57:51.114Z,40.60
2018-07-03T10:01:22.845Z,39.30
2018-07-03T10:03:51.300Z,39.30
2018-07-03T10:06:19.697Z,40.50
2018-07-03T10:08:48.780Z,41.30
2018-07-03T10:11:17.204Z,38.60
2018-07-03T10:13:45.581Z,39.50
2018-07-03T10:16:14.128Z,39.00
2018-07-03T10:18:42.555Z,38.80
2018-07-03T10:21:10.912Z,37.80
2018-07-03T10:23:39.449Z,37.10
2018-07-03T10:26:07.927Z,37.10
2018-07-03T10:28:36.336Z,38.10
2018-07-03T10:31:04.821Z,37.30
2018-07-03T10:33:33.241Z,38.30
2018-07-03T10:36:01.609Z,37.70
2018-07-03T10:38:30.025Z,38.60
2018-07-03T10:40:58.693Z,38.30
2018-07-03T10:43:27.070Z,39.20
2018-07-03T10:45:55.493Z,39.80
2018-07-03T10:48:23.991Z,39.30
2018-07-03T10:50:58.773Z,39.80
2018-07-03T10:53:27.400Z,41.00
2018-07-03T10:55:55.777Z,41.90
2018-07-03T10:58:24.144Z,42.50
2018-07-03T11:00:52.780Z,42.80
2018-07-03T11:03:21.168Z,44.60
2018-07-03T11:05:49.536Z,45.10
2018-07-03T11:08:17.938Z,44.00
2018-07-03T11:10:46.333Z,44.30
2018-07-03T11:13:14.762Z,43.40
2018-07-03T11:15:43.322Z,43.00
2018-07-03T11:18:11.724Z,43.20
2018-07-03T11:20:40.129Z,41.40
2018-07-03T11:23:08.904Z,42.20
2018-07-03T11:25:37.281Z,41.40
2018-07-03T11:28:05.673Z,40.90
2018-07-03T11:30:34.742Z,42.00
2018-07-03T11:33:03.157Z,39.50
2018-07-03T11:35:31.540Z,39.70
2018-07-03T11:37:59.968Z,40.30
2018-07-03T11:40:28.573Z,39.90
2018-07-03T11:42:56.947Z,41.30
2018-07-03T11:45:25.369Z,40.10
2018-07-03T11:47:53.884Z,41.80
2018-07-03T11:50:22.347Z,44.00
2018-07-03T11:52:50.761Z,44.10
2018-07-03T11:55:20.157Z,44.10
2018-07-03T11:57:48.732Z,45.50
2018-07-03T12:00:17.464Z,46.30
2018-07-03T12:02:46.040Z,45.80
2018-07-03T12:05:14.425Z,45.80
2018-07-03T12:07:42.816Z,46.00
2018-07-03T12:10:11.285Z,42.20
2018-07-03T12:12:39.635Z,42.60
2018-07-03T12:15:09.829Z,44.80
2018-07-03T12:17:38.344Z,44.00
2018-07-03T12:20:07.216Z,43.70
2018-07-03T12:22:36.017Z,44.00
2018-07-03T12:25:04.621Z,45.30
2018-07-03T12:27:33.021Z,45.10
2018-07-03T12:30:01.537Z,44.20
2018-07-03T12:32:29.952Z,45.30
2018-07-03T12:34:58.320Z,43.50
2018-07-03T12:37:26.681Z,44.50
2018-07-03T12:39:55.288Z,45.50
2018-07-03T12:42:23.756Z,44.70
2018-07-03T12:44:52.157Z,45.00
2018-07-03T12:47:20.752Z,45.10
2018-07-03T12:49:50.124Z,45.40
2018-07-03T12:52:18.512Z,46.30
2018-07-03T12:54:46.980Z,45.80
2018-07-03T12:57:15.405Z,43.40
2018-07-03T13:02:12.227Z,47.20
2018-07-03T13:04:40.604Z,47.60
2018-07-03T13:07:08.970Z,47.40
2018-07-03T13:09:37.360Z,47.20
2018-07-03T13:12:05.767Z,48.30
2018-07-03T13:14:34.165Z,46.00
2018-07-03T13:17:02.595Z,46.20
2018-07-03T13:19:31.016Z,47.20
2018-07-03T13:21:59.469Z,47.40
2018-07-03T13:24:28.082Z,46.20
2018-07-03T13:26:56.541Z,45.90
2018-07-03T13:29:24.938Z,44.50
2018-07-03T13:31:53.324Z,44.50
2018-07-03T13:34:21.816Z,44.90
2018-07-03T13:36:50.397Z,45.70
2018-07-03T13:39:18.790Z,45.10
2018-07-03T13:41:47.420Z,46.00
2018-07-03T13:44:15.821Z,45.50
2018-07-03T13:46:44.190Z,46.00
2018-07-03T13:49:12.788Z,47.80
2018-07-03T13:51:41.177Z,46.70
2018-07-03T13:54:09.529Z,46.60
2018-07-03T13:56:38.492Z,47.80
2018-07-03T13:59:06.873Z,48.50
2018-07-03T14:01:35.275Z,48.50
2018-07-03T14:04:03.925Z,48.70
2018-07-03T14:06:32.349Z,48.40
2018-07-03T14:09:00.693Z,49.50
2018-07-03T14:11:29.209Z,50.80
2018-07-03T14:13:57.635Z,50.40
2018-07-03T14:16:25.993Z,49.20
2018-07-03T14:18:54.620Z,50.90
2018-07-03T14:21:23.056Z,50.90
2018-07-03T14:26:20.685Z,50.30
2018-07-03T14:28:49.087Z,49.80
2018-07-03T14:31:17.485Z,49.70
2018-07-03T14:33:45.880Z,48.50
2018-07-03T14:36:14.473Z,47.50
2018-07-03T14:38:42.866Z,48.00
2018-07-03T14:41:11.409Z,48.60
2018-07-03T14:43:40.164Z,49.00
2018-07-03T14:46:08.815Z,48.10
2018-07-03T14:48:37.228Z,48.80
2018-07-03T14:51:05.840Z,49.00
2018-07-03T14:53:34.264Z,49.50
2018-07-03T14:56:02.749Z,50.20
2018-07-03T14:58:31.136Z,50.60
2018-07-03T15:00:59.665Z,50.70
2018-07-03T15:03:28.077Z,50.30
2018-07-03T15:05:56.521Z,50.70
2018-07-03T15:08:25.284Z,50.10
2018-07-03T15:10:53.666Z,50.70
2018-07-03T15:13:22.946Z,50.90
2018-07-03T15:15:51.602Z,50.90
2018-07-03T15:18:19.952Z,50.60
2018-07-03T15:20:48.317Z,50.40
2018-07-03T15:23:16.861Z,51.00
2018-07-03T15:25:45.264Z,50.50
2018-07-03T15:28:13.647Z,50.90
2018-07-03T15:30:42.297Z,51.20
2018-07-03T15:33:10.710Z,50.60
2018-07-03T15:35:39.064Z,51.10
2018-07-03T15:38:07.481Z,50.50
2018-07-03T15:43:04.240Z,50.30
2018-07-03T15:45:32.612Z,50.20
2018-07-03T15:48:01.230Z,50.30
2018-07-03T15:50:29.728Z,50.00
2018-07-03T15:52:58.136Z,50.30
2018-07-03T15:55:26.713Z,49.70
2018-07-03T15:57:55.065Z,49.30
2018-07-03T16:00:23.531Z,48.40
2018-07-03T16:04:04.885Z,48.50
2018-07-03T16:06:49.384Z,48.80
2018-07-03T16:09:18.636Z,49.10
2018-07-03T16:11:47.013Z,48.80
2018-07-03T16:14:15.492Z,47.20
2018-07-03T16:16:43.891Z,45.70
2018-07-03T16:19:18.036Z,46.70
2018-07-03T16:21:46.452Z,47.10
2018-07-03T16:24:14.946Z,47.50
2018-07-03T16:26:43.424Z,48.80
2018-07-03T16:29:12.800Z,49.50
2018-07-03T16:31:41.572Z,51.60
2018-07-03T16:34:10.202Z,49.90
2018-07-03T16:36:38.638Z,49.60
2018-07-03T16:39:09.068Z,50.30
2018-07-03T16:41:38.048Z,50.70
2018-07-03T16:44:06.464Z,49.90
2018-07-03T16:46:34.862Z,49.80
2018-07-03T16:49:03.441Z,49.80
2018-07-03T16:51:31.868Z,50.00
2018-07-03T16:54:00.288Z,50.50
2018-07-03T16:56:29.024Z,50.00
2018-07-03T16:58:57.463Z,50.10
2018-07-03T17:01:25.835Z,51.10
2018-07-03T17:03:54.304Z,50.30
2018-07-03T17:06:23.576Z,51.70
2018-07-03T17:08:51.984Z,51.90
2018-07-03T17:11:21.387Z,51.90
2018-07-03T17:13:49.965Z,51.60
2018-07-03T17:16:18.464Z,50.70
2018-07-03T17:18:52.120Z,50.80
2018-07-03T17:21:20.553Z,51.00
2018-07-03T17:23:48.996Z,51.40
2018-07-03T17:26:17.461Z,51.30
2018-07-03T17:31:13.970Z,50.90
2018-07-03T17:33:42.426Z,50.50
2018-07-03T17:36:11.961Z,51.50
2018-07-03T17:38:40.369Z,52.80
2018-07-03T17:41:20.080Z,53.30
2018-07-03T17:44:09.704Z,53.70
2018-07-03T17:46:38.316Z,54.20
2018-07-03T17:49:06.991Z,54.50
2018-07-03T17:51:35.540Z,54.90
2018-07-03T17:54:04.192Z,54.60
2018-07-03T17:56:32.676Z,54.50
2018-07-03T17:59:01.281Z,54.30
2018-07-03T18:01:29.986Z,54.90
2018-07-03T18:03:58.481Z,55.10
2018-07-03T18:06:26.953Z,55.40
2018-07-03T18:08:55.690Z,54.60
2018-07-03T18:11:24.239Z,54.80
2018-07-03T18:13:52.776Z,55.10
2018-07-03T18:16:21.567Z,55.10
2018-07-03T18:18:55.265Z,55.90
2018-07-03T18:21:24.326Z,56.50
2018-07-03T18:23:52.861Z,57.20
2018-07-03T18:26:21.478Z,58.00
2018-07-03T18:28:50.082Z,59.20
2018-07-03T18:31:18.585Z,59.60
2018-07-03T18:33:47.039Z,59.60
2018-07-03T18:36:15.452Z,60.40
2018-07-03T18:38:44.017Z,60.90
2018-07-03T18:41:12.538Z,61.40
2018-07-03T18:43:41.031Z,61.70
2018-07-03T18:46:09.476Z,62.00
2018-07-03T18:48:37.925Z,62.60
2018-07-03T18:51:06.476Z,63.20
2018-07-03T18:53:34.940Z,64.10
2018-07-03T18:56:03.477Z,65.80
2018-07-03T18:58:32.509Z,66.10
2018-07-03T19:01:00.973Z,67.00
2018-07-03T19:03:29.438Z,67.70
2018-07-03T19:05:58.116Z,68.80
2018-07-03T19:08:26.537Z,71.80
2018-07-03T19:10:54.888Z,72.70
2018-07-03T19:13:24.483Z,75.30
2018-07-03T19:15:52.861Z,77.20
2018-07-03T19:18:21.237Z,78.50
2018-07-03T19:20:49.794Z,80.80
2018-07-03T19:23:18.159Z,83.40
2018-07-03T19:25:46.560Z,86.50
2018-07-03T19:28:15.014Z,89.50
2018-07-03T19:30:43.552Z,91.20
2018-07-03T19:33:12.279Z,92.50
2018-07-03T19:35:41.133Z,93.70
2018-07-03T19:38:10.525Z,95.50
2018-07-03T19:40:39.208Z,97.10
2018-07-03T19:43:23.538Z,97.90
2018-07-03T19:45:52.991Z,99.00
2018-07-03T19:48:22.102Z,99.70
2018-07-03T19:50:51.714Z,99.90
2018-07-03T19:53:20.166Z,99.90
2018-07-03T19:55:50.141Z,99.90
2018-07-03T19:58:19.278Z,99.90
2018-07-03T20:00:48.593Z,99.90
2018-07-03T20:03:17.135Z,99.90
2018-07-03T20:05:45.717Z,99.90
2018-07-03T20:08:14.329Z,99.90
2018-07-03T20:10:42.772Z,99.90
2018-07-03T20:13:13.429Z,99.90
2018-07-03T20:15:41.837Z,99.90
2018-07-03T20:18:11.353Z,99.90
2018-07-03T20:20:40.018Z,99.90
2018-07-03T20:23:08.501Z,99.90
2018-07-03T20:25:37.671Z,99.90
2018-07-03T20:28:06.445Z,99.90
2018-07-03T20:30:34.836Z,99.90
2018-07-03T20:33:03.234Z,99.90
2018-07-03T20:35:31.677Z,99.90
2018-07-03T20:38:02.557Z,99.90
2018-07-03T20:40:53.636Z,99.90
2018-07-03T20:43:22.485Z,99.90
2018-07-03T20:45:50.856Z,99.90
2018-07-03T20:48:19.242Z,99.90
2018-07-03T20:50:47.841Z,99.90
2018-07-03T20:53:16.268Z,99.90
2018-07-03T20:55:44.663Z,99.90
2018-07-03T20:58:13.301Z,99.90
2018-07-03T21:00:41.688Z,99.90
2018-07-03T21:03:10.051Z,99.90
2018-07-03T21:05:38.665Z,99.90
2018-07-03T21:08:07.196Z,99.90
2018-07-03T21:10:35.632Z,99.90
2018-07-03T21:13:04.412Z,99.90
2018-07-03T21:15:32.779Z,99.90
2018-07-03T21:18:01.180Z,99.90
2018-07-03T21:20:29.764Z,99.90
2018-07-03T21:22:58.132Z,99.90
2018-07-03T21:25:26.528Z,99.90
2018-07-03T21:27:55.175Z,99.90
2018-07-03T21:30:23.556Z,99.90
2018-07-03T21:32:51.956Z,99.90
2018-07-03T21:35:20.622Z,99.90
2018-07-03T21:37:49.035Z,99.90
2018-07-03T21:40:17.505Z,99.90
2018-07-03T21:42:46.001Z,99.90
2018-07-03T21:45:14.588Z,99.90
2018-07-03T21:47:43.033Z,99.90
2018-07-03T21:50:11.545Z,99.90
2018-07-03T21:52:40.020Z,99.90
2018-07-03T21:55:08.457Z,99.90
2018-07-03T21:57:36.909Z,99.90
2018-07-03T22:00:06.912Z,99.90
2018-07-03T22:02:35.470Z,99.90
2018-07-03T22:05:04.191Z,99.90
2018-07-03T22:07:32.630Z,99.90
2018-07-03T22:10:01.045Z,99.90
2018-07-03T22:12:29.657Z,99.90
2018-07-03T22:14:58.093Z,99.90
2018-07-03T22:17:26.518Z,99.90
2018-07-03T22:19:55.534Z,99.90
2018-07-03T22:22:23.969Z,99.90
2018-07-03T22:24:52.329Z,99.90
2018-07-03T22:27:20.927Z,99.90
2018-07-03T22:29:49.289Z,99.90
2018-07-03T22:32:17.698Z,99.90
2018-07-03T22:34:46.181Z,99.90
2018-07-03T22:37:14.769Z,99.90
2018-07-03T22:39:43.216Z,99.90
2018-07-03T22:42:11.629Z,99.90
2018-07-03T22:44:40.106Z,99.90
2018-07-03T22:47:08.594Z,99.90
2018-07-03T22:49:37.057Z,99.90
2018-07-03T22:52:05.498Z,99.90
2018-07-03T22:54:34.022Z,99.90
2018-07-03T22:59:30.625Z,99.90
2018-07-03T23:01:59.101Z,99.90
2018-07-03T23:04:27.537Z,99.90
2018-07-03T23:06:55.986Z,99.90
2018-07-03T23:09:24.410Z,99.90
2018-07-03T23:11:53.010Z,99.90
2018-07-03T23:14:21.411Z,99.90
2018-07-03T23:16:49.867Z,99.90
2018-07-03T23:19:18.509Z,99.90
2018-07-03T23:21:46.926Z,99.90
2018-07-03T23:24:15.319Z,99.90
2018-07-03T23:26:43.769Z,99.90
2018-07-03T23:29:12.218Z,99.90
2018-07-03T23:31:40.629Z,99.90
2018-07-03T23:34:09.238Z,99.90
2018-07-03T23:36:37.666Z,99.90
2018-07-03T23:39:08.226Z,99.90
2018-07-03T23:41:36.677Z,99.90
2018-07-03T23:44:05.257Z,99.90
2018-07-03T23:46:45.065Z,99.90
2018-07-03T23:51:58.589Z,99.90
2018-07-03T23:54:38.343Z,99.90
2018-07-03T23:57:18.150Z,99.90
2018-07-03T23:59:57.797Z,99.90
